createdAt,value
2022-08-11T00:02:28.412Z,44.44
2022-08-11T00:04:56.919Z,44.11
2022-08-11T00:07:25.174Z,43.84
2022-08-11T00:09:53.412Z,44.30
2022-08-11T00:12:20.648Z,44.20
2022-08-11T00:14:55.739Z,44.28
2022-08-11T00:17:26.778Z,44.06
2022-08-11T00:20:11.787Z,44.19
2022-08-11T00:22:44.896Z,44.41
2022-08-11T00:25:13.935Z,44.09
2022-08-11T00:27:41.570Z,44.16
2022-08-11T00:30:09.703Z,44.11
2022-08-11T00:32:41.949Z,44.08
2022-08-11T00:35:51.649Z,44.29
2022-08-11T00:37:59.636Z,44.13
2022-08-11T00:40:47.017Z,44.55
2022-08-11T00:43:22.184Z,44.85
2022-08-11T00:46:09.065Z,45.17
2022-08-11T00:48:52.080Z,44.99
2022-08-11T00:52:04.286Z,45.08
2022-08-11T00:54:40.833Z,44.84
2022-08-11T00:57:36.007Z,45.44
2022-08-11T01:00:13.370Z,45.76
2022-08-11T01:02:59.348Z,45.49
2022-08-11T01:05:38.618Z,45.41
2022-08-11T01:08:24.279Z,45.95
2022-08-11T01:10:59.236Z,46.29
2022-08-11T01:13:55.599Z,46.46
2022-08-11T01:16:41.145Z,46.47
2022-08-11T01:19:27.699Z,47.37
2022-08-11T01:22:00.999Z,47.96
2022-08-11T01:24:46.578Z,47.47
2022-08-11T01:27:19.783Z,46.75
2022-08-11T01:29:52.994Z,47.70
2022-08-11T01:32:23.120Z,48.50
2022-08-11T01:34:53.194Z,49.49
2022-08-11T01:37:29.139Z,49.63
2022-08-11T01:40:14.411Z,49.71
2022-08-11T01:43:09.269Z,49.25
2022-08-11T01:45:39.431Z,49.53
2022-08-11T01:48:24.499Z,48.71
2022-08-11T01:51:03.987Z,47.83
2022-08-11T01:53:30.974Z,47.62
2022-08-11T01:56:16.790Z,47.18
2022-08-11T01:58:44.483Z,48.87
2022-08-11T02:01:30.242Z,48.88
2022-08-11T02:03:57.286Z,48.73
2022-08-11T02:06:54.821Z,48.89
2022-08-11T02:09:34.700Z,49.74
2022-08-11T02:12:10.291Z,50.34
2022-08-11T02:15:04.681Z,50.24
2022-08-11T02:17:39.427Z,50.42
2022-08-11T02:20:44.058Z,50.22
2022-08-11T02:24:03.832Z,50.18
2022-08-11T02:26:37.916Z,50.08
2022-08-11T02:29:17.775Z,49.63
2022-08-11T02:32:29.699Z,48.58
2022-08-11T02:35:03.845Z,49.13
2022-08-11T02:37:30.994Z,49.00
2022-08-11T02:39:58.037Z,49.26
2022-08-11T02:42:36.148Z,50.48
2022-08-11T02:45:12.646Z,47.36
2022-08-11T02:48:06.853Z,47.40
2022-08-11T02:50:38.007Z,46.96
2022-08-11T02:53:14.241Z,46.63
2022-08-11T02:55:48.897Z,47.31
2022-08-11T02:58:30.837Z,47.51
2022-08-11T03:01:13.062Z,46.73
2022-08-11T03:03:43.212Z,47.71
2022-08-11T03:06:22.958Z,46.75
2022-08-11T03:08:53.826Z,48.46
2022-08-11T03:11:42.811Z,49.02
2022-08-11T03:14:34.094Z,49.28
2022-08-11T03:17:20.050Z,50.14
2022-08-11T03:19:47.113Z,49.92
2022-08-11T03:22:26.854Z,51.11
2022-08-11T03:24:53.920Z,50.86
2022-08-11T03:27:33.021Z,51.82
2022-08-11T03:30:10.698Z,51.48
2022-08-11T03:32:42.325Z,51.02
2022-08-11T03:35:11.506Z,51.02
2022-08-11T03:37:56.993Z,50.47
2022-08-11T03:40:42.948Z,50.50
2022-08-11T03:43:28.624Z,51.85
2022-08-11T03:46:01.694Z,51.42
2022-08-11T03:48:39.597Z,51.21
2022-08-11T03:51:07.546Z,51.03
2022-08-11T03:53:34.651Z,51.06
2022-08-11T03:56:11.410Z,51.72
2022-08-11T03:58:57.305Z,52.95
2022-08-11T04:01:38.026Z,52.61
2022-08-11T04:04:07.929Z,54.15
2022-08-11T04:06:34.995Z,54.26
2022-08-11T04:09:20.509Z,54.75
2022-08-11T04:11:57.449Z,55.93
2022-08-11T04:14:59.911Z,56.09
2022-08-11T04:17:35.955Z,54.89
2022-08-11T04:20:21.717Z,55.09
2022-08-11T04:22:48.862Z,55.71
2022-08-11T04:25:34.825Z,56.00
2022-08-11T04:28:29.038Z,56.63
2022-08-11T04:31:15.567Z,55.57
2022-08-11T04:34:24.471Z,55.10
2022-08-11T04:37:10.164Z,54.74
2022-08-11T04:39:49.374Z,54.53
2022-08-11T04:43:07.037Z,54.87
2022-08-11T04:45:53.092Z,55.37
2022-08-11T04:48:47.810Z,56.41
2022-08-11T04:51:52.532Z,55.99
2022-08-11T04:54:38.411Z,55.72
2022-08-11T04:57:28.240Z,56.24
2022-08-11T05:00:23.022Z,56.28
2022-08-11T05:03:05.269Z,56.55
2022-08-11T05:05:41.323Z,56.88
2022-08-11T05:08:41.948Z,56.47
2022-08-11T05:11:38.172Z,56.13
2022-08-11T05:14:43.855Z,57.25
2022-08-11T05:17:31.073Z,58.64
2022-08-11T05:20:16.929Z,58.06
2022-08-11T05:23:11.964Z,57.43
2022-08-11T05:26:43.051Z,55.18
2022-08-11T05:29:19.785Z,57.65
2022-08-11T05:32:14.443Z,56.27
2022-08-11T05:34:54.144Z,54.04
2022-08-11T05:37:30.530Z,55.28
2022-08-11T05:40:18.581Z,48.96
2022-08-11T05:43:08.962Z,48.83
2022-08-11T05:46:04.643Z,48.00
2022-08-11T05:48:52.472Z,47.52
2022-08-11T05:51:38.966Z,47.87
2022-08-11T05:54:28.221Z,47.12
2022-08-11T05:56:58.807Z,47.11
2022-08-11T05:59:28.255Z,45.96
2022-08-11T06:02:05.962Z,47.99
2022-08-11T06:04:34.375Z,47.58
2022-08-11T06:07:03.990Z,45.04
2022-08-11T06:09:33.171Z,46.24
2022-08-11T06:12:02.499Z,43.82
2022-08-11T06:14:30.312Z,45.32
2022-08-11T06:17:02.048Z,41.26
2022-08-11T06:19:57.313Z,38.20
2022-08-11T06:22:34.750Z,40.01
2022-08-11T06:25:02.484Z,39.38
2022-08-11T06:27:30.615Z,40.29
2022-08-11T06:29:58.409Z,37.14
2022-08-11T06:32:36.122Z,38.08
2022-08-11T06:35:03.256Z,38.74
2022-08-11T06:37:48.895Z,37.03
2022-08-11T06:40:23.518Z,35.48
2022-08-11T06:42:56.957Z,32.95
2022-08-11T06:45:24.876Z,30.98
2022-08-11T06:47:52.206Z,26.76
2022-08-11T06:50:38.845Z,25.26
2022-08-11T06:53:07.221Z,25.07
2022-08-11T06:55:58.938Z,25.71
2022-08-11T06:58:48.244Z,28.55
2022-08-11T07:01:18.949Z,28.90
2022-08-11T07:03:55.040Z,29.17
2022-08-11T07:06:29.166Z,28.47
2022-08-11T07:09:57.171Z,27.80
2022-08-11T07:12:45.815Z,27.48
2022-08-11T07:16:10.741Z,27.85
2022-08-11T07:18:45.843Z,27.19
2022-08-11T07:22:03.737Z,27.53
2022-08-11T07:25:02.613Z,28.32
2022-08-11T07:28:00.910Z,27.66
2022-08-11T07:30:28.787Z,27.70
2022-08-11T07:32:58.162Z,27.91
2022-08-11T07:35:36.015Z,26.71
2022-08-11T07:38:07.183Z,26.14
2022-08-11T07:40:35.726Z,27.04
2022-08-11T07:43:03.718Z,27.07
2022-08-11T07:45:50.235Z,26.15
2022-08-11T07:48:36.781Z,25.81
2022-08-11T07:51:22.599Z,26.00
2022-08-11T07:53:58.634Z,26.35
2022-08-11T07:56:42.989Z,25.95
2022-08-11T08:00:00.543Z,25.61
2022-08-11T08:02:45.098Z,25.01
2022-08-11T08:05:31.069Z,25.47
2022-08-11T08:08:17.341Z,25.86
2022-08-11T08:11:03.062Z,26.08
2022-08-11T08:13:51.685Z,26.00
2022-08-11T08:16:38.343Z,25.77
2022-08-11T08:19:05.731Z,26.07
2022-08-11T08:21:32.993Z,25.70
2022-08-11T08:24:01.020Z,25.37
2022-08-11T08:26:51.354Z,25.80
2022-08-11T08:29:38.581Z,25.48
2022-08-11T08:32:07.464Z,25.44
2022-08-11T08:34:36.811Z,25.95
2022-08-11T08:37:16.113Z,25.10
2022-08-11T08:39:53.805Z,25.19
2022-08-11T08:42:28.343Z,24.76
2022-08-11T08:45:02.153Z,25.19
2022-08-11T08:47:42.482Z,25.32
2022-08-11T08:50:22.395Z,25.03
2022-08-11T08:52:59.650Z,24.35
2022-08-11T08:55:28.881Z,23.50
2022-08-11T08:57:56.260Z,22.62
2022-08-11T09:00:23.947Z,23.25
2022-08-11T09:02:52.022Z,24.05
2022-08-11T09:05:19.610Z,23.70
2022-08-11T09:07:51.060Z,23.23
2022-08-11T09:10:19.921Z,22.57
2022-08-11T09:12:48.197Z,23.12
2022-08-11T09:15:19.850Z,23.68
2022-08-11T09:18:03.555Z,23.19
2022-08-11T09:20:34.193Z,23.32
2022-08-11T09:26:31.301Z,23.30
2022-08-11T09:28:59.220Z,23.34
2022-08-11T09:31:27.064Z,23.25
2022-08-11T09:33:55.261Z,22.83
2022-08-11T09:36:41.290Z,23.12
2022-08-11T09:39:28.106Z,23.48
2022-08-11T09:42:01.729Z,23.56
2022-08-11T09:44:50.398Z,23.41
2022-08-11T09:47:28.821Z,22.23
2022-08-11T09:49:59.839Z,22.79
2022-08-11T09:52:29.062Z,22.91
2022-08-11T09:54:56.751Z,22.59
2022-08-11T09:57:43.290Z,23.36
2022-08-11T10:00:13.453Z,22.94
2022-08-11T10:02:50.354Z,22.86
2022-08-11T10:05:37.956Z,23.72
2022-08-11T10:08:05.908Z,22.89
2022-08-11T10:10:35.784Z,23.20
2022-08-11T10:13:05.338Z,23.21
2022-08-11T10:16:14.586Z,22.94
2022-08-11T10:18:52.616Z,23.04
2022-08-11T10:21:29.211Z,23.34
2022-08-11T10:24:16.947Z,22.64
2022-08-11T10:27:00.609Z,22.81
2022-08-11T10:29:49.798Z,24.24
2022-08-11T10:32:58.912Z,24.61
2022-08-11T10:35:28.174Z,24.78
2022-08-11T10:38:08.720Z,23.19
2022-08-11T10:40:40.491Z,23.67
2022-08-11T10:43:13.391Z,22.77
2022-08-11T10:46:04.133Z,23.35
2022-08-11T10:48:35.058Z,23.20
2022-08-11T10:51:14.699Z,22.20
2022-08-11T10:54:05.343Z,21.93
2022-08-11T10:56:53.706Z,21.97
2022-08-11T10:59:22.314Z,22.49
2022-08-11T11:01:50.585Z,23.08
2022-08-11T11:04:19.490Z,22.97
2022-08-11T11:06:46.577Z,23.23
2022-08-11T11:09:25.636Z,22.65
2022-08-11T11:12:12.726Z,22.25
2022-08-11T11:14:59.882Z,22.23
2022-08-11T11:17:46.985Z,23.41
2022-08-11T11:20:36.039Z,23.06
2022-08-11T11:23:10.002Z,22.55
2022-08-11T11:26:12.535Z,22.87
2022-08-11T11:28:58.315Z,22.89
2022-08-11T11:31:28.230Z,23.25
2022-08-11T11:34:15.867Z,22.62
2022-08-11T11:36:55.017Z,23.55
2022-08-11T11:39:26.584Z,22.53
2022-08-11T11:41:55.600Z,22.56
2022-08-11T11:44:23.246Z,22.90
2022-08-11T11:46:50.920Z,21.45
2022-08-11T11:51:54.918Z,22.32
2022-08-11T11:54:23.883Z,23.47
2022-08-11T11:56:53.254Z,23.85
2022-08-11T11:59:43.731Z,23.89
2022-08-11T12:02:12.940Z,23.98
2022-08-11T12:04:44.303Z,24.10
2022-08-11T12:07:30.432Z,23.23
2022-08-11T12:09:58.440Z,23.21
2022-08-11T12:12:44.646Z,23.22
2022-08-11T12:15:12.158Z,23.11
2022-08-11T12:17:39.736Z,22.93
2022-08-11T12:20:31.863Z,23.18
2022-08-11T12:23:14.808Z,23.16
2022-08-11T12:26:26.431Z,22.52
2022-08-11T12:28:50.522Z,22.48
2022-08-11T12:31:22.969Z,22.39
2022-08-11T12:33:50.344Z,22.31
2022-08-11T12:36:19.532Z,22.71
2022-08-11T12:38:51.251Z,22.73
2022-08-11T12:41:39.649Z,23.30
2022-08-11T12:44:44.639Z,22.46
2022-08-11T12:47:13.455Z,22.10
2022-08-11T12:50:04.765Z,22.10
2022-08-11T12:52:34.275Z,21.82
2022-08-11T12:55:13.799Z,21.44
2022-08-11T12:58:26.234Z,21.64
2022-08-11T13:01:12.821Z,21.96
2022-08-11T13:03:59.082Z,22.32
2022-08-11T13:06:26.690Z,22.17
2022-08-11T13:09:01.069Z,22.24
2022-08-11T13:11:56.428Z,22.63
2022-08-11T13:14:28.564Z,22.62
2022-08-11T13:17:14.537Z,22.13
2022-08-11T13:19:47.479Z,22.03
2022-08-11T13:22:18.310Z,21.86
2022-08-11T13:24:46.222Z,21.63
2022-08-11T13:27:14.063Z,22.14
2022-08-11T13:29:42.430Z,22.27
2022-08-11T13:32:11.366Z,22.05
2022-08-11T13:34:42.738Z,22.51
2022-08-11T13:37:12.030Z,23.58
2022-08-11T13:39:40.958Z,23.18
2022-08-11T13:42:08.493Z,23.03
2022-08-11T13:44:37.802Z,23.45
2022-08-11T13:47:06.621Z,23.51
2022-08-11T13:49:36.061Z,23.77
2022-08-11T13:52:10.014Z,24.06
2022-08-11T13:54:40.360Z,24.15
2022-08-11T13:57:13.532Z,24.42
2022-08-11T14:00:09.591Z,24.60
2022-08-11T14:02:42.466Z,24.28
2022-08-11T14:05:15.534Z,23.88
2022-08-11T14:07:52.968Z,24.59
2022-08-11T14:10:22.272Z,24.39
2022-08-11T14:13:15.822Z,25.18
2022-08-11T14:15:47.223Z,25.29
2022-08-11T14:18:19.342Z,24.96
2022-08-11T14:21:07.410Z,25.23
2022-08-11T14:23:46.424Z,24.94
2022-08-11T14:26:26.240Z,25.42
2022-08-11T14:29:05.322Z,25.39
2022-08-11T14:31:35.662Z,24.69
2022-08-11T14:34:07.634Z,24.51
2022-08-11T14:36:36.805Z,24.89
2022-08-11T14:39:12.938Z,25.00
2022-08-11T14:42:10.803Z,24.74
2022-08-11T14:45:22.610Z,24.95
2022-08-11T14:47:52.574Z,24.84
2022-08-11T14:50:23.947Z,25.58
2022-08-11T14:52:55.080Z,24.99
2022-08-11T14:55:44.732Z,25.05
2022-08-11T14:58:14.564Z,25.19
2022-08-11T15:00:41.971Z,25.01
2022-08-11T15:03:12.416Z,25.08
2022-08-11T15:05:56.194Z,25.27
2022-08-11T15:08:48.308Z,25.77
2022-08-11T15:11:35.092Z,25.41
2022-08-11T15:14:03.475Z,25.41
2022-08-11T15:16:49.561Z,25.99
2022-08-11T15:19:19.632Z,26.87
2022-08-11T15:22:05.699Z,26.06
2022-08-11T15:24:35.494Z,26.03
2022-08-11T15:27:24.245Z,26.39
2022-08-11T15:30:17.548Z,26.37
2022-08-11T15:33:17.801Z,26.64
2022-08-11T15:36:03.395Z,26.06
2022-08-11T15:38:33.381Z,26.55
2022-08-11T15:41:19.939Z,26.27
2022-08-11T15:44:10.359Z,26.35
2022-08-11T15:46:42.763Z,26.39
2022-08-11T15:49:12.835Z,26.83
2022-08-11T15:51:45.787Z,26.46
2022-08-11T15:54:16.219Z,26.72
2022-08-11T15:56:44.728Z,26.31
2022-08-11T15:59:41.827Z,26.20
2022-08-11T16:02:33.694Z,26.71
2022-08-11T16:05:04.209Z,26.93
2022-08-11T16:07:36.925Z,26.20
2022-08-11T16:10:09.609Z,26.88
2022-08-11T16:12:41.638Z,26.69
2022-08-11T16:15:28.728Z,26.60
2022-08-11T16:18:06.774Z,26.44
2022-08-11T16:20:34.993Z,26.39
2022-08-11T16:23:07.414Z,26.03
2022-08-11T16:27:02.158Z,26.16
2022-08-11T16:28:23.285Z,26.43
2022-08-11T16:30:51.568Z,26.60
2022-08-11T16:33:22.611Z,26.43
2022-08-11T16:36:29.977Z,26.53
2022-08-11T16:38:58.038Z,26.84
2022-08-11T16:41:46.426Z,26.56
2022-08-11T16:44:37.627Z,26.15
2022-08-11T16:47:10.192Z,26.32
2022-08-11T16:49:52.466Z,26.09
2022-08-11T16:52:21.129Z,26.40
2022-08-11T16:54:48.472Z,26.56
2022-08-11T16:57:35.559Z,26.73
2022-08-11T17:00:06.252Z,26.86
2022-08-11T17:02:55.974Z,26.66
2022-08-11T17:05:54.514Z,26.88
2022-08-11T17:08:49.846Z,26.73
2022-08-11T17:11:46.350Z,26.78
2022-08-11T17:14:16.440Z,26.74
2022-08-11T17:16:44.982Z,26.52
2022-08-11T17:19:17.624Z,26.73
2022-08-11T17:22:04.722Z,27.47
2022-08-11T17:24:33.775Z,27.08
2022-08-11T17:27:01.857Z,26.97
2022-08-11T17:29:30.779Z,27.08
2022-08-11T17:32:17.963Z,27.62
2022-08-11T17:35:06.421Z,27.71
2022-08-11T17:37:35.910Z,28.00
2022-08-11T17:40:05.128Z,27.70
2022-08-11T17:43:09.718Z,28.20
2022-08-11T17:45:56.782Z,28.51
2022-08-11T17:48:27.706Z,28.45
2022-08-11T17:51:39.585Z,28.74
2022-08-11T17:54:26.201Z,29.38
2022-08-11T17:57:19.983Z,29.65
2022-08-11T17:59:52.185Z,29.33
2022-08-11T18:02:39.425Z,29.11
2022-08-11T18:05:12.210Z,29.85
2022-08-11T18:08:02.196Z,29.80
2022-08-11T18:10:49.355Z,30.12
2022-08-11T18:13:37.439Z,30.36
2022-08-11T18:16:23.463Z,30.58
2022-08-11T18:19:09.188Z,30.43
2022-08-11T18:22:03.591Z,30.97
2022-08-11T18:25:05.988Z,31.34
2022-08-11T18:27:53.196Z,31.44
2022-08-11T18:30:39.344Z,31.96
2022-08-11T18:36:36.000Z,32.24
2022-08-11T18:39:23.105Z,31.84
2022-08-11T18:42:09.845Z,32.20
2022-08-11T18:44:56.637Z,32.22
2022-08-11T18:47:44.220Z,32.82
2022-08-11T18:50:39.560Z,32.75
2022-08-11T18:53:26.032Z,33.18
2022-08-11T18:56:11.561Z,32.58
2022-08-11T18:59:00.406Z,31.97
2022-08-11T19:01:46.475Z,31.57
2022-08-11T19:04:32.510Z,32.34
2022-08-11T19:07:25.126Z,32.64
2022-08-11T19:10:13.103Z,32.13
2022-08-11T19:13:01.313Z,32.58
2022-08-11T19:15:47.809Z,32.96
2022-08-11T19:18:37.911Z,33.00
2022-08-11T19:21:24.532Z,31.86
2022-08-11T19:24:11.503Z,31.71
2022-08-11T19:26:57.630Z,31.54
2022-08-11T19:30:05.005Z,30.88
2022-08-11T19:32:50.748Z,31.48
2022-08-11T19:35:37.768Z,31.76
2022-08-11T19:38:23.720Z,32.49
2022-08-11T19:41:10.838Z,32.56
2022-08-11T19:43:57.113Z,32.89
2022-08-11T19:46:43.150Z,32.73
2022-08-11T19:49:29.624Z,32.65
2022-08-11T19:52:15.577Z,33.19
2022-08-11T19:55:02.805Z,32.23
2022-08-11T19:57:50.115Z,32.56
2022-08-11T20:00:37.318Z,32.14
2022-08-11T20:03:24.909Z,32.56
2022-08-11T20:06:11.619Z,32.53
2022-08-11T20:08:59.965Z,32.42
2022-08-11T20:11:49.644Z,32.86
2022-08-11T20:14:36.353Z,32.54
2022-08-11T20:17:22.252Z,33.59
2022-08-11T20:20:08.775Z,33.26
2022-08-11T20:22:55.426Z,33.66
2022-08-11T20:25:42.283Z,33.52
2022-08-11T20:28:29.543Z,33.86
2022-08-11T20:31:15.117Z,33.37
2022-08-11T20:34:01.933Z,33.73
2022-08-11T20:36:52.484Z,33.47
2022-08-11T20:39:41.019Z,34.23
2022-08-11T20:42:39.948Z,34.36
2022-08-11T20:45:26.575Z,34.42
2022-08-11T20:48:16.205Z,34.46
2022-08-11T20:51:06.296Z,34.26
2022-08-11T20:53:57.465Z,33.86
2022-08-11T20:56:45.903Z,35.06
2022-08-11T20:59:33.348Z,34.97
2022-08-11T21:02:30.253Z,34.66
2022-08-11T21:08:25.520Z,34.58
2022-08-11T21:11:12.375Z,33.81
2022-08-11T21:14:01.551Z,34.16
2022-08-11T21:16:53.577Z,34.41
2022-08-11T21:20:01.668Z,34.34
2022-08-11T21:22:59.455Z,34.11
2022-08-11T21:26:01.409Z,34.12
2022-08-11T21:28:48.822Z,34.64
2022-08-11T21:31:34.933Z,34.56
2022-08-11T21:34:21.216Z,35.16
2022-08-11T21:37:08.182Z,35.01
2022-08-11T21:39:54.427Z,34.74
2022-08-11T21:42:41.214Z,33.76
2022-08-11T21:45:27.851Z,34.15
2022-08-11T21:48:14.838Z,35.13
2022-08-11T21:51:00.875Z,35.78
2022-08-11T21:53:46.540Z,37.68
2022-08-11T21:56:33.351Z,45.46
2022-08-11T21:59:20.294Z,53.59
2022-08-11T22:02:11.918Z,60.93
2022-08-11T22:04:59.199Z,64.10
2022-08-11T22:07:44.890Z,67.95
2022-08-11T22:10:42.069Z,69.32
2022-08-11T22:13:31.459Z,65.62
2022-08-11T22:16:18.525Z,66.82
2022-08-11T22:19:05.701Z,72.92
2022-08-11T22:22:03.446Z,76.77
2022-08-11T22:24:50.824Z,80.60
2022-08-11T22:27:36.327Z,82.51
2022-08-11T22:30:23.840Z,83.31
2022-08-11T22:33:09.797Z,79.57
2022-08-11T22:35:57.134Z,82.00
2022-08-11T22:38:44.615Z,86.32
2022-08-11T22:41:30.386Z,80.81
2022-08-11T22:44:16.134Z,80.56
2022-08-11T22:47:01.838Z,79.62
2022-08-11T22:49:57.526Z,76.81
2022-08-11T22:52:44.832Z,73.88
2022-08-11T22:55:30.844Z,75.10
2022-08-11T22:58:16.677Z,74.39
2022-08-11T23:01:02.832Z,74.68
2022-08-11T23:03:49.958Z,75.78
2022-08-11T23:06:37.232Z,76.24
2022-08-11T23:09:23.539Z,78.62
2022-08-11T23:12:10.422Z,80.88
2022-08-11T23:14:57.675Z,80.99
2022-08-11T23:17:44.239Z,78.02
2022-08-11T23:20:43.146Z,78.36
2022-08-11T23:23:35.992Z,79.98
2022-08-11T23:26:22.077Z,80.29
2022-08-11T23:29:07.611Z,81.05
2022-08-11T23:31:54.813Z,79.07
2022-08-11T23:35:37.325Z,73.26
2022-08-11T23:37:48.234Z,72.35
2022-08-11T23:40:34.147Z,72.81
2022-08-11T23:43:20.431Z,77.55
2022-08-11T23:46:06.286Z,78.65
2022-08-11T23:48:52.298Z,80.49
2022-08-11T23:51:41.232Z,75.07
2022-08-11T23:54:27.864Z,75.67
2022-08-11T23:57:14.728Z,76.17
